Time;durP1;ratioP1;P1;durP2;ratioP2;P2;SDS_P1;SDS_P2;PMS_P1;PMS_P2;Temp;Humidity;BMP_temperature;BMP_pressure;BME280_temperature;BME280_humidity;BME280_pressure;Samples;Min_cycle;Max_cycle;Signal;HPM_P1;HPM_P2
2023/12/04 00:00:00;;;;;;;5.20;3.80;;;;;;;-2.76;68.63;96185.27;106627;1275;25542;-79
2023/12/04 00:02:29;;;;;;;5.70;3.80;;;;;;;-2.73;68.76;96186.45;106594;1275;22520;-79
2023/12/04 00:04:57;;;;;;;6.00;3.80;;;;;;;-2.73;68.73;96192.46;106614;1275;22610;-79
2023/12/04 00:07:26;;;;;;;7.10;4.50;;;;;;;-2.75;68.89;96194.64;106474;1275;24404;-79
2023/12/04 00:09:54;;;;;;;5.80;3.70;;;;;;;-2.81;68.34;96197.32;106576;1275;24465;-79
2023/12/04 00:12:22;;;;;;;9.00;4.50;;;;;;;-2.87;68.21;96198.27;106553;1275;25436;-79
2023/12/04 00:14:50;;;;;;;5.90;3.80;;;;;;;-2.84;68.87;96198.03;106569;1275;22521;-79
2023/12/04 00:17:18;;;;;;;8.70;4.80;;;;;;;-2.84;69.07;96201.84;106614;1275;22527;-79
2023/12/04 00:19:46;;;;;;;6.10;3.60;;;;;;;-2.84;69.20;96198.91;106629;1275;25508;-79
2023/12/04 00:22:15;;;;;;;6.60;4.20;;;;;;;-2.85;69.50;96206.96;106801;1275;24217;-80
2023/12/04 00:24:43;;;;;;;7.90;4.80;;;;;;;-2.89;69.23;96211.80;106620;1275;25439;-79
2023/12/04 00:27:11;;;;;;;7.10;4.80;;;;;;;-2.90;69.00;96213.96;106604;1275;22651;-79
2023/12/04 00:29:40;;;;;;;10.60;6.10;;;;;;;-2.91;69.23;96214.11;106622;1275;25511;-79
2023/12/04 00:32:08;;;;;;;6.60;4.60;;;;;;;-2.93;69.23;96214.53;106586;1275;25380;-79
2023/12/04 00:34:36;;;;;;;8.70;4.70;;;;;;;-2.94;69.72;96217.75;106564;1275;23586;-79
2023/12/04 00:37:04;;;;;;;5.80;4.00;;;;;;;-2.95;69.92;96221.67;106701;1275;25372;-79
2023/12/04 00:39:33;;;;;;;8.10;4.70;;;;;;;-2.96;69.68;96225.25;106504;1264;22642;-79
2023/12/04 00:42:01;;;;;;;5.40;3.50;;;;;;;-2.95;69.12;96228.55;106605;1275;22923;-79
2023/12/04 00:44:29;;;;;;;8.10;4.90;;;;;;;-2.97;69.44;96223.64;106564;1275;22946;-80
2023/12/04 00:46:57;;;;;;;6.40;4.40;;;;;;;-2.97;70.09;96228.33;106592;1275;22531;-79
2023/12/04 00:49:26;;;;;;;7.40;5.00;;;;;;;-2.97;70.25;96228.30;106644;1275;22536;-79
2023/12/04 00:51:54;;;;;;;5.90;3.90;;;;;;;-2.95;70.33;96234.24;106453;1275;228331;-79
2023/12/04 00:54:23;;;;;;;7.50;4.50;;;;;;;-2.94;70.35;96233.06;106644;1275;22512;-79
2023/12/04 00:56:52;;;;;;;8.70;5.40;;;;;;;-2.96;69.76;96238.83;107003;1275;22533;-79
2023/12/04 00:59:20;;;;;;;10.80;5.50;;;;;;;-3.00;69.62;96235.41;106672;1275;22653;-79
2023/12/04 01:01:48;;;;;;;14.50;6.70;;;;;;;-3.02;69.81;96237.52;106668;1275;22794;-79
2023/12/04 01:04:17;;;;;;;10.40;5.80;;;;;;;-3.06;69.89;96242.19;106646;1275;22803;-79
2023/12/04 01:06:46;;;;;;;9.80;5.20;;;;;;;-3.08;70.19;96239.88;106569;1275;22514;-80
2023/12/04 01:09:14;;;;;;;9.30;5.60;;;;;;;-3.09;70.49;96241.02;106618;1275;22795;-79
2023/12/04 01:11:43;;;;;;;10.50;4.90;;;;;;;-3.09;70.39;96244.83;106567;1275;22636;-79
2023/12/04 01:14:11;;;;;;;12.40;6.40;;;;;;;-3.09;70.15;96240.02;106614;1275;22650;-79
2023/12/04 01:16:39;;;;;;;24.50;10.60;;;;;;;-3.08;69.99;96242.27;106621;1275;25236;-79
2023/12/04 01:19:07;;;;;;;16.30;8.20;;;;;;;-3.07;70.38;96239.57;106616;1275;25304;-80
2023/12/04 01:21:35;;;;;;;21.70;10.10;;;;;;;-3.06;70.28;96239.80;106624;1275;25717;-80
2023/12/04 01:24:04;;;;;;;19.00;8.60;;;;;;;-3.05;70.26;96239.67;106752;1275;24485;-79
2023/12/04 01:26:32;;;;;;;13.00;6.70;;;;;;;-3.05;70.24;96240.20;106720;1275;22533;-80
2023/12/04 01:29:00;;;;;;;17.30;8.80;;;;;;;-3.05;70.22;96238.27;106647;1275;24349;-80
2023/12/04 01:31:28;;;;;;;9.30;5.30;;;;;;;-3.06;70.07;96232.41;106644;1275;25293;-80
2023/12/04 01:33:57;;;;;;;10.10;6.20;;;;;;;-3.07;69.61;96231.30;106569;1275;22616;-80
2023/12/04 01:36:25;;;;;;;15.80;7.40;;;;;;;-3.08;69.59;96231.64;106575;1271;22522;-80
2023/12/04 01:38:53;;;;;;;13.70;7.90;;;;;;;-3.07;69.77;96227.69;106637;1275;25401;-80
2023/12/04 01:41:22;;;;;;;22.40;9.80;;;;;;;-3.07;70.01;96229.76;106573;1275;25340;-80
2023/12/04 01:43:50;;;;;;;18.50;8.20;;;;;;;-3.07;70.02;96229.77;106571;1275;24286;-80
2023/12/04 01:46:18;;;;;;;10.40;5.80;;;;;;;-3.07;69.92;96229.42;106621;1275;25358;-80
2023/12/04 01:48:47;;;;;;;17.20;7.60;;;;;;;-3.07;69.69;96227.88;106590;1275;22545;-80
2023/12/04 01:51:17;;;;;;;9.00;5.30;;;;;;;-3.06;69.63;96231.53;106697;1275;22535;-80
2023/12/04 01:53:47;;;;;;;11.00;6.20;;;;;;;-3.06;69.61;96226.70;106665;1264;22538;-79
2023/12/04 01:56:17;;;;;;;9.10;5.40;;;;;;;-3.05;70.00;96225.02;106606;1275;23875;-80
2023/12/04 01:58:46;;;;;;;8.10;4.60;;;;;;;-3.02;70.32;96228.75;106624;1275;24241;-80
2023/12/04 02:01:15;;;;;;;9.60;5.90;;;;;;;-3.02;70.22;96233.74;106644;1275;22547;-79
2023/12/04 02:03:43;;;;;;;14.00;8.10;;;;;;;-3.03;70.78;96236.64;106698;1275;22527;-80
2023/12/04 02:06:12;;;;;;;14.40;7.30;;;;;;;-3.00;70.95;96229.38;106934;1275;24468;-80
2023/12/04 02:08:41;;;;;;;13.40;7.20;;;;;;;-2.97;70.98;96227.09;106870;1275;22577;-80
2023/12/04 02:11:09;;;;;;;12.30;7.30;;;;;;;-2.95;71.20;96229.61;106899;1275;22985;-80
2023/12/04 02:13:39;;;;;;;13.60;6.90;;;;;;;-2.92;71.12;96236.29;106744;1275;22537;-80
2023/12/04 02:16:10;;;;;;;17.80;9.30;;;;;;;-2.87;71.18;96235.45;106878;1275;22587;-80
2023/12/04 02:18:39;;;;;;;16.60;9.40;;;;;;;-2.83;71.19;96231.65;106624;1275;22808;-80
2023/12/04 02:21:07;;;;;;;13.90;7.50;;;;;;;-2.81;71.39;96229.84;106617;1275;22647;-79
2023/12/04 02:23:35;;;;;;;12.20;6.70;;;;;;;-2.82;71.29;96233.08;106639;1275;22524;-80
2023/12/04 02:26:17;;;;;;;11.60;6.90;;;;;;;-2.78;71.15;96229.79;106610;1275;22651;-80
2023/12/04 02:28:52;;;;;;;17.20;8.80;;;;;;;-2.71;71.30;96235.78;106647;1275;24281;-80
2023/12/04 02:31:21;;;;;;;18.40;9.30;;;;;;;-2.64;71.12;96235.92;106643;1275;24289;-80
2023/12/04 02:33:52;;;;;;;17.70;9.00;;;;;;;-2.57;70.88;96240.52;106616;1275;23887;-79
2023/12/04 02:36:24;;;;;;;17.00;8.20;;;;;;;-2.51;70.68;96240.77;106621;1275;25526;-80
2023/12/04 02:38:53;;;;;;;16.80;7.90;;;;;;;-2.53;70.54;96244.31;106644;1275;22529;-80
2023/12/04 02:41:21;;;;;;;13.40;7.30;;;;;;;-2.55;70.62;96246.27;106701;1275;24510;-80
2023/12/04 02:43:49;;;;;;;8.60;6.00;;;;;;;-2.52;70.67;96240.89;106593;1275;22518;-80
2023/12/04 02:46:17;;;;;;;9.30;6.10;;;;;;;-2.52;70.80;96240.18;106588;1275;25165;-80
2023/12/04 02:48:46;;;;;;;8.60;5.60;;;;;;;-2.51;70.58;96240.05;106644;1275;24404;-79
2023/12/04 02:51:14;;;;;;;9.60;6.00;;;;;;;-2.55;70.62;96236.13;106629;1275;25420;-79
2023/12/04 02:53:42;;;;;;;12.50;6.00;;;;;;;-2.57;70.82;96239.14;106601;1275;22584;-80
2023/12/04 02:56:11;;;;;;;12.70;6.80;;;;;;;-2.58;70.76;96237.88;106675;1263;22522;-80
2023/12/04 02:58:39;;;;;;;13.90;6.50;;;;;;;-2.60;71.08;96236.91;106579;1275;22660;-79
2023/12/04 03:01:07;;;;;;;13.50;7.20;;;;;;;-2.64;71.43;96240.57;106622;1275;22653;-79
2023/12/04 03:03:36;;;;;;;12.80;6.50;;;;;;;-2.67;71.43;96239.58;106601;1275;25307;-80
2023/12/04 03:06:05;;;;;;;14.00;6.30;;;;;;;-2.68;71.57;96241.25;106592;1275;24222;-80
2023/12/04 03:08:34;;;;;;;11.00;6.50;;;;;;;-2.66;71.90;96247.71;106625;1275;25291;-79
2023/12/04 03:11:03;;;;;;;16.10;8.40;;;;;;;-2.67;72.02;96247.81;106629;1275;25158;-79
2023/12/04 03:13:31;;;;;;;16.20;9.10;;;;;;;-2.70;72.22;96247.38;106646;1275;25408;-79
2023/12/04 03:16:00;;;;;;;13.00;7.70;;;;;;;-2.76;72.75;96253.83;106752;1264;22528;-79
2023/12/04 03:18:28;;;;;;;14.40;7.30;;;;;;;-2.84;72.89;96250.58;106750;1275;24360;-80
2023/12/04 03:20:57;;;;;;;19.80;9.50;;;;;;;-2.89;73.12;96252.91;106643;1275;24507;-79
2023/12/04 03:23:25;;;;;;;24.50;9.50;;;;;;;-2.88;72.96;96256.56;106643;1275;25586;-79
2023/12/04 03:25:53;;;;;;;20.30;10.30;;;;;;;-2.94;72.91;96258.55;106641;1275;24260;-79
2023/12/04 03:28:21;;;;;;;15.50;8.90;;;;;;;-2.98;73.53;96264.04;106564;1275;22526;-79
2023/12/04 03:30:50;;;;;;;14.00;8.00;;;;;;;-3.02;74.76;96265.93;106920;1264;25351;-79
2023/12/04 03:33:18;;;;;;;11.30;7.00;;;;;;;-3.02;74.44;96265.42;106579;1275;22567;-79
2023/12/04 03:35:47;;;;;;;12.50;6.70;;;;;;;-3.01;74.45;96266.33;106568;1275;22526;-79
2023/12/04 03:38:15;;;;;;;18.60;10.20;;;;;;;-3.01;74.30;96264.61;106630;1258;22517;-79
2023/12/04 03:40:43;;;;;;;95.30;33.70;;;;;;;-3.00;74.49;96259.65;106718;1275;25403;-80
2023/12/04 03:43:11;;;;;;;95.00;36.50;;;;;;;-3.00;74.49;96262.43;106839;1275;22510;-80
2023/12/04 03:45:39;;;;;;;76.90;33.60;;;;;;;-3.02;75.00;96261.83;106608;1275;22637;-79
2023/12/04 03:48:08;;;;;;;58.80;27.30;;;;;;;-3.02;75.07;96258.52;106566;1275;25417;-80
2023/12/04 03:50:36;;;;;;;32.10;16.20;;;;;;;-3.01;75.14;96258.77;106582;1275;22632;-79
2023/12/04 03:53:04;;;;;;;22.70;12.10;;;;;;;-3.01;74.70;96264.27;106701;1275;22538;-80
2023/12/04 03:55:32;;;;;;;15.90;9.50;;;;;;;-3.00;74.86;96265.52;106597;1275;24350;-80
2023/12/04 03:58:01;;;;;;;15.50;7.60;;;;;;;-2.99;74.40;96270.17;106889;1275;22537;-79
2023/12/04 04:00:29;;;;;;;15.30;8.90;;;;;;;-3.02;74.61;96271.64;106685;1275;22555;-79
2023/12/04 04:02:57;;;;;;;19.80;10.40;;;;;;;-3.03;74.65;96275.52;106686;1275;22514;-79
2023/12/04 04:05:25;;;;;;;19.00;11.20;;;;;;;-3.05;75.10;96275.80;106633;1275;26517;-80
2023/12/04 04:07:54;;;;;;;17.10;9.50;;;;;;;-3.03;75.33;96278.80;106674;1275;25426;-80
2023/12/04 04:10:22;;;;;;;20.00;10.70;;;;;;;-3.03;75.21;96275.55;106582;1275;24398;-80
2023/12/04 04:12:51;;;;;;;19.30;11.10;;;;;;;-3.04;75.03;96272.05;106594;1275;24069;-80
2023/12/04 04:15:19;;;;;;;33.60;19.60;;;;;;;-3.07;75.06;96268.83;106568;1275;25347;-79
2023/12/04 04:17:47;;;;;;;75.40;49.30;;;;;;;-3.07;75.38;96270.89;106598;1275;22526;-79
2023/12/04 04:20:16;;;;;;;76.70;51.30;;;;;;;-3.05;75.10;96265.83;106651;1268;22656;-79
2023/12/04 04:22:46;;;;;;;22.80;14.10;;;;;;;-3.02;75.00;96272.83;106578;1275;22555;-80
2023/12/04 04:25:16;;;;;;;15.40;9.10;;;;;;;-3.00;74.87;96273.75;106714;1275;22599;-80
2023/12/04 04:27:44;;;;;;;14.00;8.30;;;;;;;-2.99;75.30;96280.20;106882;1275;25416;-80
2023/12/04 04:30:13;;;;;;;11.60;7.50;;;;;;;-2.98;74.82;96285.73;106654;1275;23766;-80
2023/12/04 04:32:41;;;;;;;15.20;7.90;;;;;;;-2.97;74.58;96286.96;106687;1271;22586;-79
2023/12/04 04:35:10;;;;;;;12.60;7.70;;;;;;;-2.97;74.99;96288.05;106678;1275;25460;-80
2023/12/04 04:37:38;;;;;;;11.20;6.70;;;;;;;-2.94;74.67;96287.13;106682;1275;22666;-79
2023/12/04 04:40:11;;;;;;;9.30;6.20;;;;;;;-2.94;73.97;96288.69;106647;1275;22993;-79
2023/12/04 04:42:39;;;;;;;12.80;8.00;;;;;;;-2.98;73.26;96291.78;106703;1275;22534;-79
2023/12/04 04:45:07;;;;;;;13.20;7.10;;;;;;;-2.99;73.77;96290.33;106802;1275;22632;-79
2023/12/04 04:47:36;;;;;;;12.80;8.60;;;;;;;-2.98;74.13;96286.09;106674;1275;25383;-79
2023/12/04 04:50:04;;;;;;;17.00;11.20;;;;;;;-2.97;74.14;96281.51;106658;1275;22676;-79
2023/12/04 04:52:33;;;;;;;15.20;9.60;;;;;;;-2.95;74.41;96282.77;106667;1275;23922;-79
2023/12/04 04:55:01;;;;;;;13.10;8.20;;;;;;;-2.93;74.44;96284.73;106642;1275;22521;-79
2023/12/04 04:57:29;;;;;;;15.70;9.80;;;;;;;-2.94;74.43;96296.60;106866;1275;24226;-79
2023/12/04 04:59:57;;;;;;;20.10;13.20;;;;;;;-2.93;74.45;96296.46;106608;1275;22643;-79
2023/12/04 05:02:26;;;;;;;12.30;8.00;;;;;;;-2.93;74.34;96300.93;106637;1275;25317;-80
2023/12/04 05:04:54;;;;;;;11.90;6.60;;;;;;;-2.94;74.08;96302.63;106620;1275;22519;-80
2023/12/04 05:07:23;;;;;;;12.50;7.20;;;;;;;-2.93;73.82;96300.92;106580;1275;27370;-79
2023/12/04 05:09:51;;;;;;;12.50;7.60;;;;;;;-2.93;73.76;96306.27;106694;1275;22525;-79
2023/12/04 05:12:19;;;;;;;11.50;7.60;;;;;;;-2.93;73.43;96310.94;106653;1275;22597;-79
2023/12/04 05:14:47;;;;;;;9.40;6.30;;;;;;;-2.93;73.57;96315.39;106606;1274;22648;-79
2023/12/04 05:17:15;;;;;;;9.80;5.70;;;;;;;-2.92;73.57;96318.88;106694;1274;22665;-79
2023/12/04 05:19:44;;;;;;;11.30;7.20;;;;;;;-2.93;73.26;96322.96;106754;1274;24357;-79
2023/12/04 05:22:12;;;;;;;33.00;19.70;;;;;;;-2.94;73.32;96323.64;106624;1274;24285;-79
2023/12/04 05:24:40;;;;;;;11.70;7.30;;;;;;;-2.94;73.20;96323.10;106672;1274;22513;-79
2023/12/04 05:27:09;;;;;;;46.90;26.80;;;;;;;-2.96;73.08;96319.74;106642;1274;22539;-79
2023/12/04 05:29:37;;;;;;;67.80;36.20;;;;;;;-3.00;73.15;96320.95;106649;1274;24223;-79
2023/12/04 05:32:06;;;;;;;21.50;13.10;;;;;;;-3.00;73.85;96314.04;106657;1253;25567;-80
2023/12/04 05:34:34;;;;;;;15.70;8.70;;;;;;;-3.02;73.63;96313.96;106602;1274;22533;-79
2023/12/04 05:37:02;;;;;;;14.10;8.50;;;;;;;-3.01;73.53;96311.94;106636;1274;22547;-79
2023/12/04 05:39:31;;;;;;;13.50;8.10;;;;;;;-2.99;73.47;96312.05;106682;1274;24274;-80
2023/12/04 05:41:59;;;;;;;17.50;9.20;;;;;;;-2.98;73.76;96316.38;106608;1274;22525;-79
2023/12/04 05:44:27;;;;;;;49.30;25.20;;;;;;;-3.01;73.45;96312.45;106614;1274;25426;-79
2023/12/04 05:46:55;;;;;;;12.60;7.70;;;;;;;-3.00;73.53;96313.71;106592;1274;24261;-79
2023/12/04 05:49:24;;;;;;;14.50;9.20;;;;;;;-2.99;73.28;96315.48;106608;1274;24380;-79
2023/12/04 05:51:52;;;;;;;13.10;7.20;;;;;;;-2.96;73.30;96322.67;106693;1274;24404;-79
2023/12/04 05:54:20;;;;;;;11.60;7.60;;;;;;;-2.92;73.46;96320.77;106604;1274;22746;-78
2023/12/04 05:56:49;;;;;;;11.80;7.40;;;;;;;-2.86;73.33;96324.35;106601;1274;22639;-79
2023/12/04 05:59:17;;;;;;;13.20;8.40;;;;;;;-2.83;72.89;96326.02;106635;1274;24474;-79
2023/12/04 06:01:45;;;;;;;12.90;8.40;;;;;;;-2.78;72.78;96329.50;106599;1274;24501;-78
2023/12/04 06:04:13;;;;;;;15.00;7.80;;;;;;;-2.72;72.72;96329.23;106570;1274;24253;-78
2023/12/04 06:06:42;;;;;;;12.30;6.50;;;;;;;-2.68;72.78;96328.20;106630;1274;22514;-78
2023/12/04 06:09:10;;;;;;;10.40;6.70;;;;;;;-2.65;72.71;96330.59;106766;1274;22789;-78
2023/12/04 06:11:39;;;;;;;15.70;7.20;;;;;;;-2.56;72.82;96335.79;106776;1274;24230;-78
2023/12/04 06:14:07;;;;;;;12.70;7.10;;;;;;;-2.51;72.04;96337.73;106578;1274;22527;-78
2023/12/04 06:16:35;;;;;;;14.20;8.60;;;;;;;-2.53;72.15;96341.61;106719;1275;25507;-78
2023/12/04 06:19:06;;;;;;;21.00;9.50;;;;;;;-2.49;72.22;96345.73;106934;1275;22646;-78
2023/12/04 06:21:34;;;;;;;19.50;10.10;;;;;;;-2.43;72.18;96349.80;106713;1274;22520;-78
2023/12/04 06:24:03;;;;;;;12.70;7.70;;;;;;;-2.30;72.34;96353.95;106591;1275;22542;-78
2023/12/04 06:26:40;;;;;;;12.40;7.30;;;;;;;-2.33;69.98;96354.02;106722;1274;22629;-78
2023/12/04 06:29:09;;;;;;;15.80;8.40;;;;;;;-2.42;70.72;96357.92;106668;1274;22530;-78
2023/12/04 06:31:37;;;;;;;22.50;10.60;;;;;;;-2.44;71.19;96358.02;106949;1275;22781;-78
2023/12/04 06:34:06;;;;;;;16.50;8.60;;;;;;;-2.39;71.40;96357.38;106954;1274;22533;-78
2023/12/04 06:36:40;;;;;;;14.80;7.50;;;;;;;-2.33;71.18;96359.86;106976;1274;24987;-78
2023/12/04 06:39:11;;;;;;;11.20;6.60;;;;;;;-2.32;70.70;96362.30;106716;1274;22521;-78
2023/12/04 06:41:42;;;;;;;14.50;8.20;;;;;;;-2.34;70.34;96367.05;106666;1275;24348;-78
2023/12/04 06:44:11;;;;;;;13.30;7.10;;;;;;;-2.35;70.49;96361.17;106608;1275;22531;-78
2023/12/04 06:46:41;;;;;;;9.20;6.30;;;;;;;-2.41;69.93;96360.89;106715;1274;22630;-78
2023/12/04 06:49:09;;;;;;;13.10;7.50;;;;;;;-2.51;70.03;96361.00;106634;1274;22521;-78
2023/12/04 06:51:38;;;;;;;10.90;6.70;;;;;;;-2.53;70.49;96358.31;106640;1274;22576;-78
2023/12/04 06:54:06;;;;;;;15.70;7.10;;;;;;;-2.57;70.51;96364.35;106619;1275;23874;-78
2023/12/04 06:56:34;;;;;;;12.60;8.30;;;;;;;-2.63;70.48;96362.71;106511;1275;25413;-79
2023/12/04 06:59:02;;;;;;;15.70;8.50;;;;;;;-2.64;71.18;96366.96;106631;1275;24503;-78
2023/12/04 07:01:31;;;;;;;17.30;10.50;;;;;;;-2.60;71.16;96364.72;106670;1275;22518;-80
2023/12/04 07:03:59;;;;;;;17.70;7.80;;;;;;;-2.60;70.92;96367.66;106657;1275;25344;-78
2023/12/04 07:06:28;;;;;;;13.40;7.90;;;;;;;-2.62;70.73;96367.91;106666;1275;22519;-79
2023/12/04 07:08:56;;;;;;;11.80;7.30;;;;;;;-2.64;70.87;96363.70;106673;1275;25297;-78
2023/12/04 07:11:24;;;;;;;17.20;7.50;;;;;;;-2.64;70.55;96362.82;106657;1265;23056;-79
2023/12/04 07:13:52;;;;;;;12.70;7.60;;;;;;;-2.64;70.60;96362.83;106621;1275;25543;-79
2023/12/04 07:16:21;;;;;;;13.20;7.60;;;;;;;-2.62;71.18;96364.50;106659;1275;22522;-80
2023/12/04 07:18:49;;;;;;;12.40;7.40;;;;;;;-2.56;71.34;96363.87;106687;1275;22642;-79
2023/12/04 07:21:17;;;;;;;14.70;8.50;;;;;;;-2.52;71.22;96368.55;106622;1274;22562;-79
2023/12/04 07:23:45;;;;;;;12.70;7.10;;;;;;;-2.48;71.03;96364.73;106662;1275;22550;-79
2023/12/04 07:26:14;;;;;;;13.80;7.90;;;;;;;-2.46;70.71;96363.61;106615;1275;24209;-79
2023/12/04 07:28:42;;;;;;;9.80;6.40;;;;;;;-2.44;70.78;96368.89;106653;1275;22554;-79
2023/12/04 07:31:11;;;;;;;10.70;6.30;;;;;;;-2.43;70.45;96370.80;106644;1275;24063;-78
2023/12/04 07:33:40;;;;;;;12.40;7.00;;;;;;;-2.45;70.10;96370.39;106724;1275;22789;-79
2023/12/04 07:36:08;;;;;;;11.90;7.10;;;;;;;-2.42;70.43;96371.55;106717;1275;24265;-78
2023/12/04 07:38:36;;;;;;;40.40;23.70;;;;;;;-2.39;70.59;96374.09;106629;1275;22531;-78
2023/12/04 07:41:05;;;;;;;26.20;17.40;;;;;;;-2.35;70.43;96375.98;106625;1275;25362;-78
2023/12/04 07:43:33;;;;;;;18.10;11.40;;;;;;;-2.31;70.30;96373.56;106889;1275;22996;-79
2023/12/04 07:46:03;;;;;;;13.40;7.00;;;;;;;-2.27;70.32;96380.11;106916;1275;22525;-79
2023/12/04 07:48:31;;;;;;;8.80;5.70;;;;;;;-2.28;69.61;96380.59;106671;1275;24184;-78
2023/12/04 07:50:59;;;;;;;8.50;5.40;;;;;;;-2.32;69.37;96382.30;106686;1274;22526;-79
2023/12/04 07:53:28;;;;;;;10.80;6.50;;;;;;;-2.30;69.99;96378.77;106681;1274;25324;-79
2023/12/04 07:55:56;;;;;;;10.90;7.20;;;;;;;-2.25;70.38;96373.47;106674;1264;22617;-78
2023/12/04 07:58:24;;;;;;;12.20;8.20;;;;;;;-2.17;70.48;96377.27;106677;1274;25295;-79
2023/12/04 08:00:52;;;;;;;10.30;6.90;;;;;;;-2.11;70.41;96376.31;106641;1275;24482;-79
2023/12/04 08:03:20;;;;;;;9.40;5.80;;;;;;;-2.06;70.62;96380.16;106668;1275;25431;-78
2023/12/04 08:05:49;;;;;;;17.40;10.30;;;;;;;-2.04;70.50;96378.52;106643;1275;23917;-79
2023/12/04 08:08:17;;;;;;;12.10;8.10;;;;;;;-2.00;70.53;96373.17;106599;1275;25326;-78
2023/12/04 08:10:45;;;;;;;12.00;7.60;;;;;;;-1.97;70.42;96366.39;107191;1275;22613;-78
2023/12/04 08:13:13;;;;;;;13.70;8.70;;;;;;;-1.96;70.58;96365.58;106766;1275;22566;-79
2023/12/04 08:15:42;;;;;;;19.50;12.70;;;;;;;-1.92;70.65;96368.33;106662;1275;24375;-82
2023/12/04 08:18:10;;;;;;;18.70;12.60;;;;;;;-1.85;70.92;96376.05;106708;1275;22757;-80
2023/12/04 08:20:38;;;;;;;14.70;9.00;;;;;;;-1.77;70.88;96374.29;106841;1275;22530;-80
2023/12/04 08:23:08;;;;;;;11.10;6.30;;;;;;;-1.74;68.86;96375.64;106899;1275;25428;-79
2023/12/04 08:25:38;;;;;;;10.20;6.70;;;;;;;-1.73;68.40;96377.02;106835;1275;25670;-79
2023/12/04 08:28:08;;;;;;;7.20;4.90;;;;;;;-1.68;67.65;96381.39;107139;1275;22802;-76
2023/12/04 08:30:39;;;;;;;9.10;5.40;;;;;;;-1.63;65.82;96382.11;106808;1275;22646;-75
2023/12/04 08:33:07;;;;;;;11.50;6.40;;;;;;;-1.60;66.01;96377.77;106914;1275;24239;-75
2023/12/04 08:35:35;;;;;;;13.30;7.00;;;;;;;-1.59;66.04;96374.01;106917;1258;22768;-77
2023/12/04 08:38:04;;;;;;;9.70;6.30;;;;;;;-1.57;66.25;96370.98;106695;1275;22542;-76
2023/12/04 08:40:32;;;;;;;10.20;6.10;;;;;;;-1.53;66.10;96370.79;106910;1275;24231;-77
2023/12/04 08:43:00;;;;;;;7.60;5.30;;;;;;;-1.50;65.75;96373.65;106743;1275;22646;-77
2023/12/04 08:45:29;;;;;;;10.30;7.20;;;;;;;-1.47;65.39;96370.48;106734;1275;22639;-78
2023/12/04 08:47:58;;;;;;;8.10;5.50;;;;;;;-1.29;66.55;96368.62;106838;1275;22542;-77
2023/12/04 08:50:26;;;;;;;8.80;5.70;;;;;;;-1.06;66.88;96367.60;106693;1275;22530;-77
2023/12/04 08:52:55;;;;;;;8.80;5.50;;;;;;;-0.87;65.88;96375.60;106707;1275;22544;-78
2023/12/04 08:55:23;;;;;;;20.90;9.30;;;;;;;-0.74;65.47;96371.08;106652;1275;25359;-76
2023/12/04 08:57:51;;;;;;;11.30;5.80;;;;;;;-0.68;64.83;96370.25;106651;1275;22657;-77
2023/12/04 09:00:20;;;;;;;8.90;5.80;;;;;;;-0.66;64.87;96370.35;106768;1275;22649;-78
2023/12/04 09:02:48;;;;;;;7.80;5.00;;;;;;;-0.61;64.62;96367.07;106646;1275;25357;-78
2023/12/04 09:05:32;;;;;;;8.00;4.90;;;;;;;-0.56;64.45;96361.70;106618;1275;22530;-78
2023/12/04 09:08:01;;;;;;;7.70;5.00;;;;;;;-0.55;63.52;96363.66;106683;1275;25498;-77
2023/12/04 09:10:49;;;;;;;6.40;4.60;;;;;;;-0.57;62.70;96359.79;106851;1275;25562;-78
2023/12/04 09:13:38;;;;;;;6.80;5.20;;;;;;;-0.57;63.04;96360.80;106803;1275;24223;-77
2023/12/04 09:16:08;;;;;;;7.80;4.40;;;;;;;-0.62;61.46;96360.28;106755;1275;22578;-77
2023/12/04 09:18:36;;;;;;;6.20;4.60;;;;;;;-0.71;60.81;96356.34;106871;1275;22882;-77
2023/12/04 09:21:05;;;;;;;8.00;4.90;;;;;;;-0.81;60.64;96350.08;106686;1275;24273;-77
2023/12/04 09:23:35;;;;;;;7.30;4.40;;;;;;;-0.80;60.99;96348.20;106927;1275;22700;-77
2023/12/04 09:26:03;;;;;;;10.50;8.20;;;;;;;-0.74;61.85;96343.95;106896;1275;22514;-77
2023/12/04 09:28:32;;;;;;;17.20;13.40;;;;;;;-0.64;61.33;96342.23;106853;1275;23917;-77
2023/12/04 09:31:00;;;;;;;23.20;13.60;;;;;;;-0.56;61.48;96347.01;106788;1275;26669;-77
2023/12/04 09:33:28;;;;;;;116.80;58.60;;;;;;;-0.53;59.91;96349.73;106661;1275;22566;-77
2023/12/04 09:35:57;;;;;;;68.80;37.00;;;;;;;-0.45;60.90;96346.02;106655;1275;22670;-78
2023/12/04 09:38:25;;;;;;;80.40;39.40;;;;;;;-0.33;60.41;96339.36;106623;1275;22551;-77
2023/12/04 09:40:58;;;;;;;18.10;10.30;;;;;;;-0.12;60.27;96341.49;106719;1268;25619;-78
2023/12/04 09:43:26;;;;;;;13.10;7.10;;;;;;;0.21;57.55;96339.98;107037;1275;22539;-78
2023/12/04 09:46:01;;;;;;;36.80;21.30;;;;;;;0.57;58.17;96342.89;106703;1275;22530;-77
2023/12/04 09:48:31;;;;;;;44.30;26.30;;;;;;;0.94;57.24;96336.98;106624;1275;25417;-77
2023/12/04 09:51:02;;;;;;;39.00;23.70;;;;;;;1.27;55.96;96331.68;107240;1274;22598;-77
2023/12/04 09:53:32;;;;;;;5.50;3.50;;;;;;;1.57;55.17;96323.36;106779;1274;24091;-77
2023/12/04 09:56:03;;;;;;;8.90;6.40;;;;;;;1.92;54.01;96316.83;106856;1274;24255;-76
2023/12/04 09:58:32;;;;;;;10.50;7.40;;;;;;;2.22;52.83;96313.94;106718;1274;25337;-77
2023/12/04 10:01:02;;;;;;;8.60;6.70;;;;;;;2.61;52.90;96309.88;106686;1275;22563;-77
2023/12/04 10:03:31;;;;;;;7.30;5.40;;;;;;;2.94;50.21;96306.81;106734;1275;22525;-77
2023/12/04 10:06:02;;;;;;;4.80;3.60;;;;;;;3.18;49.85;96308.20;106769;1263;24408;-77
2023/12/04 10:08:30;;;;;;;10.30;6.30;;;;;;;3.27;48.75;96308.73;106632;1264;25488;-78
2023/12/04 10:11:00;;;;;;;5.20;3.90;;;;;;;3.73;48.80;96307.05;106666;1275;25380;-78
2023/12/04 10:13:29;;;;;;;5.30;3.60;;;;;;;4.00;48.21;96301.47;106689;1275;22523;-78
2023/12/04 10:16:37;;;;;;;5.10;4.00;;;;;;;4.24;46.78;96295.61;106665;1275;23331;-77
2023/12/04 10:19:17;;;;;;;5.60;4.30;;;;;;;4.58;46.33;96289.23;106836;1275;23900;-78
2023/12/04 10:21:48;;;;;;;6.80;4.70;;;;;;;4.83;46.35;96279.66;106714;1275;25354;-78
2023/12/04 10:24:35;;;;;;;6.40;4.80;;;;;;;5.03;44.80;96276.29;106757;1275;22646;-78
2023/12/04 10:27:08;;;;;;;7.80;4.30;;;;;;;5.35;43.91;96271.99;106697;1273;22549;-78
2023/12/04 10:29:48;;;;;;;5.70;3.70;;;;;;;5.50;43.09;96275.66;106590;1275;23842;-78
2023/12/04 10:32:21;;;;;;;4.30;3.50;;;;;;;5.49;43.51;96272.85;106684;1275;22571;-78
2023/12/04 10:34:50;;;;;;;4.70;3.70;;;;;;;5.68;42.76;96275.86;106638;1275;24238;-78
2023/12/04 10:37:20;;;;;;;10.10;7.80;;;;;;;5.63;41.82;96274.95;106605;1275;22541;-78
2023/12/04 10:39:51;;;;;;;6.00;4.90;;;;;;;5.70;42.26;96277.65;106669;1275;24304;-78
2023/12/04 10:42:27;;;;;;;4.50;3.70;;;;;;;5.93;42.30;96272.83;106702;1275;22643;-78
2023/12/04 10:44:59;;;;;;;7.60;4.70;;;;;;;6.17;41.95;96274.30;106461;1275;22618;-78
2023/12/04 10:47:32;;;;;;;6.60;5.10;;;;;;;6.22;41.61;96274.18;106647;1275;24731;-78
2023/12/04 10:50:02;;;;;;;6.10;4.50;;;;;;;6.34;41.28;96271.67;106614;1275;22651;-78
2023/12/04 10:52:32;;;;;;;4.80;4.20;;;;;;;6.30;40.98;96270.23;106646;1275;22624;-78
2023/12/04 10:55:01;;;;;;;5.60;4.60;;;;;;;6.19;41.22;96276.27;106573;1275;24532;-78
2023/12/04 10:57:38;;;;;;;6.90;4.80;;;;;;;6.54;42.72;96270.79;106655;1275;22779;-78
2023/12/04 11:00:08;;;;;;;7.10;4.50;;;;;;;6.94;39.89;96258.14;106716;1265;22851;-78
2023/12/04 11:02:46;;;;;;;6.90;4.50;;;;;;;6.99;40.16;96253.80;106620;1275;24009;-79
2023/12/04 11:05:21;;;;;;;6.00;5.00;;;;;;;7.13;39.91;96258.06;106653;1275;22984;-79
2023/12/04 11:07:57;;;;;;;9.50;4.70;;;;;;;7.15;40.12;96259.31;106670;1266;22532;-78
2023/12/04 11:10:55;;;;;;;10.10;8.90;;;;;;;7.35;39.66;96249.59;106593;1275;22539;-78
2023/12/04 11:13:35;;;;;;;10.30;6.70;;;;;;;7.57;39.61;96252.66;106708;1275;22546;-78
2023/12/04 11:16:09;;;;;;;7.50;6.20;;;;;;;7.74;39.19;96243.08;106619;1275;22566;-78
2023/12/04 11:18:43;;;;;;;9.00;7.10;;;;;;;7.70;39.55;96244.13;106600;1275;22537;-78
2023/12/04 11:21:11;;;;;;;15.50;6.90;;;;;;;7.51;39.40;96244.94;106720;1275;24402;-78
2023/12/04 11:23:41;;;;;;;8.70;7.30;;;;;;;7.62;39.63;96234.81;106634;1259;24264;-78
2023/12/04 11:26:10;;;;;;;9.30;6.70;;;;;;;7.55;39.65;96232.35;106590;1275;22639;-79
2023/12/04 11:28:39;;;;;;;7.70;5.80;;;;;;;7.43;39.71;96236.69;106735;1275;24382;-78